Terminal Aerodrome Forecast
Issued by NWS

Home | Current Version | Previous Version | Text Only | Print | Product List | Glossary On
Versions: 1 2 3 4 5 6 7 8 9 10 11 12 13 14 15 16 17 18 19 20
000
FTPA31 PHFO 062325
TAFHNY
TAF
PHNY 062325Z 0700/0724 32008KT P6SM VCSH BKN035 BKN060
     FM070500 02008KT P6SM VCSH BKN035
     FM072000 04015KT P6SM VCSH BKN035=

USA.gov is the U.S. government's official web portal to all federal, state and local government web resources and services.